Time;durP1;ratioP1;P1;durP2;ratioP2;P2;SDS_P1;SDS_P2;PMS_P1;PMS_P2;Temp;Humidity;BMP_temperature;BMP_pressure;BME280_temperature;BME280_humidity;BME280_pressure;Samples;Min_cycle;Max_cycle;Signal;HPM_P1;HPM_P2
2021/07/17 00:00:11;;;;;;;10.85;6.68;;;21.70;99.90;;;;;;4339400;32;20109;-70
2021/07/17 00:02:37;;;;;;;10.60;6.95;;;21.60;99.90;;;;;;4376272;32;20453;-69
2021/07/17 00:05:14;;;;;;;12.30;7.53;;;21.80;99.90;;;;;;4351025;32;20088;-71
2021/07/17 00:07:41;;;;;;;9.60;7.25;;;21.80;99.90;;;;;;4364010;32;20081;-71
2021/07/17 00:10:12;;;;;;;9.50;7.20;;;21.80;99.90;;;;;;4351822;32;20085;-70
2021/07/17 00:12:38;;;;;;;9.50;7.28;;;21.80;99.90;;;;;;4363866;32;20496;-70
2021/07/17 00:15:05;;;;;;;10.63;7.68;;;21.70;99.90;;;;;;4376250;32;20065;-70
2021/07/17 00:17:31;;;;;;;10.55;7.00;;;21.70;99.90;;;;;;4351556;32;20077;-70
2021/07/17 00:19:58;;;;;;;10.52;7.20;;;21.80;99.90;;;;;;4363877;32;20140;-71
2021/07/17 00:22:24;;;;;;;9.35;7.15;;;21.70;99.90;;;;;;4339592;32;20148;-70
2021/07/17 00:24:50;;;;;;;10.32;6.75;;;21.70;99.90;;;;;;4351408;32;20153;-71
2021/07/17 00:27:17;;;;;;;9.68;6.85;;;21.70;99.90;;;;;;4376323;32;20105;-70
2021/07/17 00:29:45;;;;;;;12.50;6.95;;;21.70;99.90;;;;;;4339323;32;20080;-70
2021/07/17 00:32:11;;;;;;;9.60;6.97;;;21.70;99.90;;;;;;4351370;32;20082;-70
2021/07/17 00:34:37;;;;;;;9.70;6.90;;;21.60;99.90;;;;;;4377418;32;20089;-71
2021/07/17 00:37:03;;;;;;;9.40;6.78;;;21.60;99.90;;;;;;4377162;32;20078;-71
2021/07/17 00:39:30;;;;;;;9.63;7.00;;;21.50;99.90;;;;;;4375724;32;20476;-71
2021/07/17 00:41:56;;;;;;;8.77;6.97;;;21.60;99.90;;;;;;4375871;32;20092;-70
2021/07/17 00:44:22;;;;;;;11.32;7.90;;;21.60;99.90;;;;;;4375880;32;20515;-70
2021/07/17 00:46:48;;;;;;;8.93;6.78;;;21.80;99.90;;;;;;4375905;32;20504;-71
2021/07/17 00:49:15;;;;;;;10.45;7.32;;;21.70;99.90;;;;;;4351046;32;20162;-71
2021/07/17 00:51:41;;;;;;;9.00;6.95;;;21.70;99.90;;;;;;4363476;32;20093;-71
2021/07/17 00:54:07;;;;;;;9.50;6.30;;;21.70;99.90;;;;;;4363702;32;20097;-71
2021/07/17 00:56:34;;;;;;;8.13;6.53;;;21.70;99.90;;;;;;4363256;32;20097;-71
2021/07/17 00:59:00;;;;;;;8.80;6.72;;;21.80;99.90;;;;;;4363319;32;20093;-70
2021/07/17 01:01:27;;;;;;;10.02;7.22;;;21.80;99.90;;;;;;4363704;32;20093;-71
2021/07/17 01:03:55;;;;;;;9.75;6.97;;;21.70;99.90;;;;;;4338454;32;20138;-70
2021/07/17 01:06:21;;;;;;;9.98;6.95;;;21.80;99.90;;;;;;4363209;32;20063;-69
2021/07/17 01:08:48;;;;;;;9.60;6.60;;;21.80;99.90;;;;;;4363484;32;20080;-71
2021/07/17 01:11:14;;;;;;;9.85;6.97;;;21.80;99.90;;;;;;4375391;32;20123;-69
2021/07/17 01:13:40;;;;;;;11.18;7.45;;;21.80;99.90;;;;;;4375751;32;20071;-70
2021/07/17 01:16:06;;;;;;;11.70;7.05;;;21.80;99.90;;;;;;4376843;32;20085;-71
2021/07/17 01:18:32;;;;;;;20.15;8.13;;;21.70;99.90;;;;;;4351071;32;20167;-71
2021/07/17 01:20:59;;;;;;;9.82;7.00;;;21.80;99.90;;;;;;4351010;32;20097;-69
2021/07/17 01:23:25;;;;;;;11.55;6.68;;;22.00;99.90;;;;;;4350552;32;20077;-70
2021/07/17 01:25:51;;;;;;;9.70;6.57;;;22.00;99.90;;;;;;4350615;32;20058;-70
2021/07/17 01:28:18;;;;;;;9.65;6.78;;;21.90;99.90;;;;;;4338507;32;20503;-70
2021/07/17 01:30:44;;;;;;;11.55;6.70;;;21.90;99.90;;;;;;4376081;32;20089;-70
2021/07/17 01:33:11;;;;;;;8.55;6.72;;;22.00;99.90;;;;;;4375329;32;20071;-71
2021/07/17 01:35:37;;;;;;;8.93;6.25;;;22.10;99.90;;;;;;4350523;32;20512;-70
2021/07/17 01:38:07;;;;;;;9.23;7.07;;;22.10;99.90;;;;;;4337933;32;20073;-71
2021/07/17 01:40:34;;;;;;;10.35;6.82;;;22.20;99.90;;;;;;4362958;32;20578;-70
2021/07/17 01:43:02;;;;;;;10.57;7.07;;;22.20;99.90;;;;;;4350842;32;20082;-70
2021/07/17 01:45:39;;;;;;;20.35;8.23;;;22.20;99.90;;;;;;4375326;32;20096;-70
2021/07/17 01:48:09;;;;;;;10.40;7.30;;;22.30;99.90;;;;;;4363654;32;20085;-71
2021/07/17 01:50:36;;;;;;;8.93;6.72;;;22.30;99.90;;;;;;4362902;32;20070;-71
2021/07/17 01:53:04;;;;;;;8.88;7.05;;;22.30;99.90;;;;;;4350888;32;20065;-71
2021/07/17 01:55:30;;;;;;;9.32;6.40;;;22.20;99.90;;;;;;4363174;32;20069;-71
2021/07/17 01:57:57;;;;;;;9.38;7.10;;;22.30;99.90;;;;;;4375439;32;20441;-71
2021/07/17 02:00:24;;;;;;;9.48;7.43;;;22.30;99.90;;;;;;4350138;32;20093;-70
2021/07/17 02:02:51;;;;;;;9.90;7.90;;;22.30;99.90;;;;;;4338044;32;20167;-71
2021/07/17 02:05:18;;;;;;;11.52;7.55;;;22.30;99.90;;;;;;4362258;32;20094;-70
2021/07/17 02:07:45;;;;;;;9.18;7.28;;;22.40;99.90;;;;;;4362981;32;20141;-70
2021/07/17 02:10:32;;;;;;;8.88;7.37;;;22.50;99.90;;;;;;4365652;32;20145;-71
2021/07/17 02:13:12;;;;;;;9.00;7.53;;;22.50;99.90;;;;;;4355810;32;20058;-70
2021/07/17 02:15:44;;;;;;;9.20;7.22;;;22.50;99.90;;;;;;4368551;32;20089;-70
2021/07/17 02:18:12;;;;;;;10.20;7.32;;;22.60;99.90;;;;;;4356526;32;20062;-70
2021/07/17 02:20:39;;;;;;;11.68;7.47;;;22.60;99.90;;;;;;4378364;32;20158;-71
2021/07/17 02:23:05;;;;;;;12.07;7.70;;;22.60;99.90;;;;;;4375607;32;20174;-70
2021/07/17 02:25:32;;;;;;;9.30;7.37;;;22.60;99.90;;;;;;4356979;32;20494;-70
2021/07/17 02:27:59;;;;;;;7.87;7.07;;;22.60;99.90;;;;;;4346332;32;20066;-70
2021/07/17 02:30:26;;;;;;;9.43;7.05;;;22.60;99.90;;;;;;4345045;32;20082;-71
2021/07/17 02:32:52;;;;;;;10.20;7.37;;;22.60;99.90;;;;;;4354011;32;20089;-70
2021/07/17 02:35:18;;;;;;;9.88;7.28;;;22.70;99.90;;;;;;4375310;32;20525;-71
2021/07/17 02:37:44;;;;;;;12.60;7.05;;;22.70;99.90;;;;;;4349830;32;20441;-71
2021/07/17 02:40:11;;;;;;;10.05;6.78;;;22.70;99.90;;;;;;4375166;32;20505;-71
2021/07/17 02:45:17;;;;;;;10.10;7.45;;;22.80;99.90;;;;;;3857218;37;20065;-70
2021/07/17 02:47:43;;;;;;;8.95;6.85;;;22.80;99.90;;;;;;4418524;32;20096;-71
2021/07/17 02:50:11;;;;;;;10.10;6.70;;;22.90;99.90;;;;;;4381022;32;20162;-69
2021/07/17 02:52:37;;;;;;;9.38;7.07;;;22.90;99.90;;;;;;4405611;32;20085;-71
2021/07/17 02:55:04;;;;;;;8.48;6.45;;;23.10;99.90;;;;;;4405729;32;20152;-70
2021/07/17 02:57:30;;;;;;;9.27;7.00;;;23.00;99.90;;;;;;4393205;32;20069;-71
2021/07/17 02:59:57;;;;;;;12.05;6.93;;;23.10;99.90;;;;;;4392854;32;20076;-70
2021/07/17 03:04:58;;;;;;;8.07;6.35;;;23.10;99.90;;;;;;3857250;37;20465;-71
2021/07/17 03:07:25;;;;;;;19.40;8.52;;;23.20;99.90;;;;;;4393385;32;20100;-71
2021/07/17 03:09:51;;;;;;;9.43;6.75;;;23.30;99.90;;;;;;4418451;32;20159;-71
2021/07/17 03:12:17;;;;;;;10.10;6.65;;;23.30;99.90;;;;;;4418519;32;20069;-69
2021/07/17 03:14:44;;;;;;;8.90;7.28;;;23.10;99.90;;;;;;4419911;32;20065;-70
2021/07/17 03:17:12;;;;;;;9.18;7.10;;;23.20;99.90;;;;;;4393098;32;20080;-70
2021/07/17 03:19:39;;;;;;;9.75;6.20;;;23.30;99.90;;;;;;4418590;32;20483;-70
2021/07/17 03:22:06;;;;;;;11.40;7.40;;;23.40;99.90;;;;;;4392866;32;20093;-70
2021/07/17 03:24:32;;;;;;;9.63;7.22;;;23.50;99.90;;;;;;4380763;32;20062;-71
2021/07/17 03:26:58;;;;;;;9.48;7.25;;;23.40;99.90;;;;;;4380807;32;20087;-70
2021/07/17 03:29:25;;;;;;;9.02;7.05;;;23.40;99.90;;;;;;4393270;32;20080;-71
2021/07/17 03:31:51;;;;;;;8.98;6.95;;;23.50;99.90;;;;;;4405368;32;20096;-70
2021/07/17 03:34:17;;;;;;;10.00;7.12;;;23.40;99.90;;;;;;4392781;32;20072;-71
2021/07/17 03:36:43;;;;;;;9.43;7.45;;;23.50;99.90;;;;;;4415416;32;20645;-71
2021/07/17 03:39:09;;;;;;;9.73;7.65;;;23.60;99.90;;;;;;4390274;32;20182;-70
2021/07/17 03:41:37;;;;;;;9.25;7.20;;;23.60;99.90;;;;;;4390360;32;20066;-70
2021/07/17 03:44:04;;;;;;;9.25;7.15;;;23.80;99.90;;;;;;4402941;32;20077;-71
2021/07/17 03:46:31;;;;;;;9.38;7.45;;;23.70;99.90;;;;;;4389813;32;20101;-71
2021/07/17 03:48:57;;;;;;;9.43;7.10;;;23.80;99.90;;;;;;4402439;32;20096;-71
2021/07/17 03:51:23;;;;;;;9.65;7.22;;;23.80;99.90;;;;;;4402247;32;20536;-71
2021/07/17 03:53:49;;;;;;;11.80;7.97;;;23.80;99.90;;;;;;4390569;32;20092;-71
2021/07/17 03:56:15;;;;;;;10.00;7.47;;;23.80;99.90;;;;;;4402430;32;20572;-70
2021/07/17 03:58:41;;;;;;;9.38;6.32;;;23.90;99.90;;;;;;4390184;32;20093;-70
2021/07/17 04:01:07;;;;;;;9.60;6.80;;;24.00;99.90;;;;;;4389987;32;20164;-71
2021/07/17 04:03:34;;;;;;;9.52;7.07;;;24.10;99.90;;;;;;4389528;32;20078;-70
2021/07/17 04:06:00;;;;;;;9.73;7.25;;;24.10;99.90;;;;;;4377634;32;20089;-70
2021/07/17 04:08:26;;;;;;;7.15;5.47;;;24.20;99.90;;;;;;4402722;32;20596;-70
2021/07/17 04:10:53;;;;;;;10.65;7.28;;;24.30;99.90;;;;;;4377192;32;20507;-70
2021/07/17 04:13:19;;;;;;;9.43;7.57;;;24.30;99.90;;;;;;4402238;32;20057;-71
2021/07/17 04:15:45;;;;;;;9.73;7.78;;;24.20;99.90;;;;;;4382205;32;20149;-72
2021/07/17 04:18:11;;;;;;;10.82;7.15;;;24.20;99.90;;;;;;4379590;32;20073;-70
2021/07/17 04:20:38;;;;;;;9.82;7.03;;;24.30;99.90;;;;;;4392305;32;20444;-70
2021/07/17 04:23:04;;;;;;;12.00;7.68;;;24.40;99.90;;;;;;4367439;32;20166;-70
2021/07/17 04:25:31;;;;;;;11.68;7.95;;;24.60;99.90;;;;;;4380099;32;20086;-71
2021/07/17 04:27:58;;;;;;;11.80;7.90;;;24.60;99.90;;;;;;4354705;32;20164;-71
2021/07/17 04:30:24;;;;;;;12.68;7.78;;;24.70;99.90;;;;;;4367206;32;20096;-71
2021/07/17 04:32:50;;;;;;;10.48;8.40;;;24.90;99.90;;;;;;4393085;32;20085;-71
2021/07/17 04:35:16;;;;;;;12.73;9.30;;;24.90;99.90;;;;;;4391598;32;20070;-70
2021/07/17 04:37:43;;;;;;;10.45;8.40;;;24.90;99.90;;;;;;4366557;32;20125;-70
2021/07/17 04:40:10;;;;;;;11.35;7.93;;;26.90;99.90;;;;;;4383954;32;20070;-76
2021/07/17 04:42:36;;;;;;;11.25;8.23;;;28.50;99.90;;;;;;4375719;32;20496;-76
2021/07/17 04:45:03;;;;;;;10.82;8.23;;;28.20;99.90;;;;;;4348882;32;20098;-71
2021/07/17 04:47:29;;;;;;;13.20;8.02;;;28.00;99.90;;;;;;4387765;32;20093;-74
2021/07/17 04:49:55;;;;;;;14.60;8.25;;;28.80;99.90;;;;;;4379409;32;20069;-72
2021/07/17 04:52:21;;;;;;;12.90;8.20;;;29.30;99.90;;;;;;4381806;32;20129;-72
2021/07/17 04:54:48;;;;;;;12.90;8.65;;;29.80;99.90;;;;;;4372424;32;20070;-69
2021/07/17 04:57:14;;;;;;;12.65;8.45;;;29.50;99.90;;;;;;4377149;32;20073;-81
2021/07/17 04:59:40;;;;;;;11.55;8.88;;;28.70;99.90;;;;;;4375008;32;20519;-75
2021/07/17 05:02:06;;;;;;;10.98;8.90;;;28.40;99.90;;;;;;4386977;32;20073;-75
2021/07/17 05:04:32;;;;;;;11.82;8.52;;;28.70;99.90;;;;;;4381515;32;20106;-75
2021/07/17 05:06:58;;;;;;;12.13;8.32;;;29.20;99.90;;;;;;4385244;32;20575;-79
2021/07/17 05:09:25;;;;;;;10.48;7.93;;;29.50;99.90;;;;;;4377466;32;20670;-77
2021/07/17 05:11:51;;;;;;;12.40;8.75;;;29.10;99.90;;;;;;4377540;32;20563;-77
2021/07/17 05:14:17;;;;;;;13.20;8.48;;;29.20;99.90;;;;;;4364184;32;20547;-76
2021/07/17 05:16:43;;;;;;;13.25;9.15;;;29.20;99.90;;;;;;4382055;32;20614;-76
2021/07/17 05:19:09;;;;;;;11.25;8.07;;;29.70;98.60;;;;;;4375173;32;20106;-72
2021/07/17 05:21:36;;;;;;;10.50;8.63;;;30.40;95.10;;;;;;4376124;32;20074;-74
2021/07/17 05:24:04;;;;;;;12.43;8.45;;;30.00;95.40;;;;;;4377424;32;20102;-78
2021/07/17 05:26:30;;;;;;;13.57;9.43;;;29.70;97.10;;;;;;4375836;32;20120;-80
2021/07/17 05:28:57;;;;;;;13.73;9.05;;;30.60;93.30;;;;;;4385292;32;20069;-72
2021/07/17 05:31:23;;;;;;;13.73;9.50;;;30.10;92.50;;;;;;4384866;32;20089;-73
2021/07/17 05:33:49;;;;;;;15.50;10.32;;;30.60;92.80;;;;;;4378549;32;20098;-76
2021/07/17 05:36:15;;;;;;;14.32;9.45;;;30.20;90.90;;;;;;4347243;32;20069;-75
2021/07/17 05:38:41;;;;;;;13.82;8.80;;;29.60;94.30;;;;;;4376759;32;20104;-77
2021/07/17 05:41:08;;;;;;;11.80;9.25;;;29.70;95.40;;;;;;4376916;32;20068;-76
2021/07/17 05:43:35;;;;;;;11.12;9.38;;;30.20;92.70;;;;;;4375073;32;20112;-77
2021/07/17 05:46:01;;;;;;;14.82;9.55;;;30.90;87.10;;;;;;4371683;32;20066;-74
2021/07/17 05:48:27;;;;;;;15.98;9.00;;;31.60;81.00;;;;;;4374949;32;20068;-75
2021/07/17 05:50:53;;;;;;;12.00;8.77;;;31.50;82.90;;;;;;4386213;32;20073;-70
2021/07/17 05:53:21;;;;;;;10.82;8.73;;;31.60;76.80;;;;;;4376894;32;20069;-80
2021/07/17 05:55:47;;;;;;;10.90;8.63;;;31.30;79.10;;;;;;4390823;32;20136;-79
2021/07/17 05:58:14;;;;;;;11.65;8.88;;;30.70;78.20;;;;;;4351942;32;20118;-76
2021/07/17 06:00:42;;;;;;;9.65;8.57;;;31.30;74.80;;;;;;4369199;32;21290;-76
2021/07/17 06:03:09;;;;;;;10.18;8.55;;;30.90;77.30;;;;;;4374458;32;20174;-75
2021/07/17 06:05:36;;;;;;;10.38;8.25;;;30.00;87.60;;;;;;4385384;32;20064;-72
2021/07/17 06:08:03;;;;;;;10.07;7.78;;;29.80;90.00;;;;;;4376731;32;20108;-74
2021/07/17 06:10:30;;;;;;;9.57;8.25;;;30.50;83.40;;;;;;4352475;32;20096;-74
2021/07/17 06:12:56;;;;;;;11.90;8.50;;;30.80;81.40;;;;;;4375778;32;20077;-74
2021/07/17 06:15:22;;;;;;;10.48;8.48;;;31.00;76.50;;;;;;4391116;32;20470;-78
2021/07/17 06:17:52;;;;;;;14.00;8.82;;;31.30;75.60;;;;;;4361026;32;20074;-78
2021/07/17 06:20:21;;;;;;;11.63;8.32;;;32.30;71.80;;;;;;4351875;32;20067;-74
2021/07/17 06:22:47;;;;;;;10.77;8.77;;;31.90;73.20;;;;;;4367314;32;20147;-74
2021/07/17 06:25:13;;;;;;;10.52;8.10;;;30.70;77.30;;;;;;4375255;32;20157;-65
2021/07/17 06:27:40;;;;;;;11.10;7.90;;;30.40;81.80;;;;;;4363001;32;20141;-73
2021/07/17 06:30:06;;;;;;;13.95;8.38;;;31.00;75.10;;;;;;4372891;32;20081;-67
2021/07/17 06:32:32;;;;;;;11.65;8.40;;;29.80;80.50;;;;;;4371622;32;20069;-70
2021/07/17 06:34:58;;;;;;;10.68;8.32;;;29.70;82.20;;;;;;4383020;32;20448;-71
2021/07/17 06:37:25;;;;;;;10.20;8.63;;;29.60;88.90;;;;;;4376234;32;20098;-68
2021/07/17 06:39:52;;;;;;;9.00;7.70;;;29.50;88.60;;;;;;4371909;32;20121;-67
2021/07/17 06:42:18;;;;;;;10.45;7.93;;;29.40;85.90;;;;;;4363192;32;20086;-66
2021/07/17 06:44:44;;;;;;;11.25;8.63;;;29.60;85.70;;;;;;4389403;32;20116;-71
2021/07/17 06:47:10;;;;;;;10.98;7.80;;;29.80;82.00;;;;;;4377337;32;20497;-68
2021/07/17 06:49:36;;;;;;;11.32;8.10;;;29.80;85.00;;;;;;4373852;32;20073;-73
2021/07/17 06:52:03;;;;;;;10.90;8.80;;;30.20;83.90;;;;;;4377048;32;20058;-74
2021/07/17 06:54:29;;;;;;;10.60;8.20;;;29.60;89.70;;;;;;4359445;32;20057;-73
2021/07/17 06:56:55;;;;;;;10.75;8.15;;;29.50;88.90;;;;;;4373343;32;20141;-72
2021/07/17 06:59:21;;;;;;;12.95;8.02;;;29.10;90.00;;;;;;4387068;32;20078;-69
2021/07/17 07:01:47;;;;;;;9.88;8.07;;;29.60;87.10;;;;;;4376618;32;20074;-74
2021/07/17 07:04:14;;;;;;;10.52;8.25;;;29.90;83.20;;;;;;4385529;32;20086;-73
2021/07/17 07:06:40;;;;;;;11.95;8.60;;;29.80;79.60;;;;;;4381563;32;20080;-71
2021/07/17 07:09:06;;;;;;;10.57;7.80;;;29.90;77.50;;;;;;4379796;32;20075;-77
2021/07/17 07:11:32;;;;;;;13.65;8.60;;;30.10;77.10;;;;;;4375582;32;20086;-77
2021/07/17 07:13:58;;;;;;;10.35;7.78;;;30.10;75.50;;;;;;4350192;32;20073;-79
2021/07/17 07:16:25;;;;;;;10.60;7.93;;;29.40;81.40;;;;;;4374093;32;21449;-76
2021/07/17 07:18:51;;;;;;;9.93;8.13;;;29.70;81.10;;;;;;4359546;32;20109;-77
2021/07/17 07:21:17;;;;;;;9.43;7.82;;;30.10;79.90;;;;;;4375634;32;20455;-77
2021/07/17 07:23:43;;;;;;;9.27;7.62;;;29.60;82.40;;;;;;4350270;32;20082;-79
2021/07/17 07:26:09;;;;;;;12.73;8.55;;;29.80;80.50;;;;;;4380074;32;20141;-80
2021/07/17 07:28:36;;;;;;;11.02;8.18;;;30.10;78.70;;;;;;4388717;32;20511;-77
2021/07/17 07:31:02;;;;;;;9.10;7.72;;;30.10;75.80;;;;;;4385350;32;20077;-77
2021/07/17 07:33:28;;;;;;;10.13;9.00;;;29.90;77.10;;;;;;4375930;32;20077;-74
2021/07/17 07:35:54;;;;;;;10.88;8.05;;;30.20;74.90;;;;;;4376599;32;20105;-77
2021/07/17 07:38:21;;;;;;;11.65;8.07;;;30.20;72.70;;;;;;4356739;32;20166;-75
2021/07/17 07:40:47;;;;;;;9.05;7.53;;;30.10;75.10;;;;;;4374527;32;20098;-75
2021/07/17 07:43:13;;;;;;;9.25;7.65;;;30.30;72.30;;;;;;4380500;32;20135;-73
2021/07/17 07:45:39;;;;;;;10.15;7.95;;;30.00;73.30;;;;;;4371862;32;20067;-73
2021/07/17 07:48:06;;;;;;;16.67;7.68;;;30.10;74.70;;;;;;4384450;32;20592;-72
2021/07/17 07:50:32;;;;;;;10.00;7.40;;;30.20;74.30;;;;;;4350558;32;20088;-72
2021/07/17 07:52:59;;;;;;;9.23;6.90;;;30.40;71.50;;;;;;4352265;32;20575;-74
2021/07/17 07:55:25;;;;;;;9.25;7.12;;;30.20;71.30;;;;;;4364816;32;20161;-79
2021/07/17 07:57:51;;;;;;;10.85;7.75;;;29.90;71.80;;;;;;4371398;32;20573;-76
2021/07/17 08:00:18;;;;;;;9.02;7.53;;;30.40;68.00;;;;;;4371379;32;20137;-75
2021/07/17 08:02:45;;;;;;;8.68;7.15;;;30.40;64.70;;;;;;4363855;32;20438;-81
2021/07/17 08:05:11;;;;;;;8.70;7.07;;;30.40;64.00;;;;;;4355122;32;20093;-76
2021/07/17 08:07:37;;;;;;;9.77;7.00;;;30.60;63.50;;;;;;4372645;32;20452;-72
2021/07/17 08:10:04;;;;;;;9.57;7.43;;;30.70;60.70;;;;;;4381771;32;20058;-71
2021/07/17 08:12:30;;;;;;;12.40;7.00;;;30.90;59.60;;;;;;4364936;32;20098;-67
2021/07/17 08:14:57;;;;;;;9.30;6.95;;;31.00;56.80;;;;;;4377046;32;20105;-71
2021/07/17 08:17:23;;;;;;;9.80;7.78;;;30.70;57.20;;;;;;4362336;32;20089;-70
2021/07/17 08:19:49;;;;;;;10.65;7.87;;;30.80;55.70;;;;;;4349103;32;20537;-69
2021/07/17 08:22:15;;;;;;;8.85;7.25;;;31.50;54.20;;;;;;4351548;32;20074;-72
2021/07/17 08:24:41;;;;;;;10.77;7.15;;;31.70;50.30;;;;;;4363934;32;20456;-70
2021/07/17 08:27:08;;;;;;;9.23;7.28;;;31.90;48.90;;;;;;4351777;32;20444;-70
2021/07/17 08:29:34;;;;;;;9.23;7.70;;;31.00;49.80;;;;;;4376472;32;20088;-70
2021/07/17 08:32:00;;;;;;;9.77;7.80;;;31.30;50.60;;;;;;4350400;32;20055;-70
2021/07/17 08:34:26;;;;;;;8.32;6.90;;;31.50;50.20;;;;;;4351968;32;20086;-70
2021/07/17 08:36:52;;;;;;;10.55;7.45;;;31.70;49.40;;;;;;4339714;32;20109;-70
2021/07/17 08:39:19;;;;;;;10.40;8.23;;;31.30;47.30;;;;;;4351297;32;20081;-71
2021/07/17 08:41:49;;;;;;;8.65;7.00;;;31.10;49.60;;;;;;4378513;32;20169;-71
2021/07/17 08:44:17;;;;;;;8.50;7.10;;;31.90;49.90;;;;;;4339943;32;20062;-71
2021/07/17 08:46:46;;;;;;;9.38;7.07;;;31.50;49.30;;;;;;4352317;32;20097;-71
2021/07/17 08:49:12;;;;;;;9.38;7.55;;;31.40;48.50;;;;;;4352027;32;20071;-70
2021/07/17 08:51:38;;;;;;;8.63;7.62;;;31.60;48.50;;;;;;4351936;32;20503;-70
2021/07/17 08:54:05;;;;;;;8.73;6.85;;;32.20;46.80;;;;;;4364837;32;20082;-70
2021/07/17 08:56:31;;;;;;;9.45;7.18;;;32.10;42.00;;;;;;4376309;32;20092;-71
2021/07/17 08:58:57;;;;;;;10.38;7.28;;;31.90;44.10;;;;;;4352949;32;20516;-71
2021/07/17 09:01:24;;;;;;;10.45;7.28;;;32.00;45.00;;;;;;4340351;32;20178;-71
2021/07/17 09:03:50;;;;;;;12.27;7.57;;;31.70;38.60;;;;;;4377490;32;20151;-71
2021/07/17 09:06:16;;;;;;;12.75;8.82;;;31.20;39.20;;;;;;4388207;32;20090;-71
2021/07/17 09:08:42;;;;;;;9.57;7.78;;;31.50;38.10;;;;;;4383343;32;20092;-71
2021/07/17 09:11:09;;;;;;;7.97;6.28;;;32.10;37.80;;;;;;4397973;32;20141;-71
2021/07/17 09:13:36;;;;;;;12.45;8.10;;;32.20;36.20;;;;;;4384519;32;20067;-73
2021/07/17 09:16:05;;;;;;;10.77;7.87;;;32.60;36.20;;;;;;4359485;32;20087;-73
2021/07/17 09:18:49;;;;;;;9.63;7.53;;;31.60;36.80;;;;;;4359720;32;20057;-71
2021/07/17 09:21:27;;;;;;;10.23;7.97;;;32.00;36.80;;;;;;4364729;32;20066;-72
2021/07/17 09:24:20;;;;;;;11.18;7.57;;;32.60;36.60;;;;;;4354817;32;20159;-71
2021/07/17 09:27:04;;;;;;;11.20;8.27;;;32.20;35.80;;;;;;4373928;32;20182;-72
2021/07/17 09:29:38;;;;;;;9.43;7.62;;;32.00;36.30;;;;;;4351689;32;20070;-72
2021/07/17 09:32:05;;;;;;;11.12;7.75;;;32.60;35.30;;;;;;4351963;32;20163;-71
2021/07/17 09:34:32;;;;;;;10.40;7.78;;;32.10;36.90;;;;;;4351716;32;20082;-71
2021/07/17 09:37:11;;;;;;;11.23;7.85;;;32.30;35.80;;;;;;4339133;32;20078;-71
2021/07/17 09:39:40;;;;;;;9.05;7.95;;;32.40;36.00;;;;;;4340368;32;20074;-72
2021/07/17 09:42:13;;;;;;;10.20;7.85;;;32.50;35.70;;;;;;4327799;32;20108;-72
2021/07/17 09:44:39;;;;;;;10.43;6.90;;;32.70;35.20;;;;;;4351543;32;20508;-72
2021/07/17 09:47:26;;;;;;;9.95;8.18;;;33.10;35.30;;;;;;4351120;32;20075;-71
2021/07/17 09:50:15;;;;;;;10.43;7.90;;;33.00;35.00;;;;;;4338993;32;20086;-72
2021/07/17 09:52:42;;;;;;;9.68;7.82;;;33.20;33.80;;;;;;4363208;32;20448;-70
2021/07/17 09:55:12;;;;;;;11.52;8.90;;;32.90;34.10;;;;;;4338696;32;20089;-71
2021/07/17 09:57:39;;;;;;;10.40;7.90;;;32.30;35.00;;;;;;4351439;32;20469;-71
2021/07/17 10:00:13;;;;;;;9.35;7.82;;;32.40;36.10;;;;;;4338966;32;20086;-70
2021/07/17 10:02:40;;;;;;;9.65;7.75;;;32.70;35.70;;;;;;4363515;32;20463;-70
2021/07/17 10:05:09;;;;;;;10.70;8.30;;;32.60;34.40;;;;;;4348774;32;20069;-71
2021/07/17 10:07:35;;;;;;;10.52;8.15;;;32.60;34.60;;;;;;4352188;32;20105;-71
2021/07/17 10:10:02;;;;;;;11.55;8.25;;;32.10;35.50;;;;;;4352298;32;20533;-71
2021/07/17 10:12:39;;;;;;;9.65;7.20;;;32.10;36.60;;;;;;4374276;32;20100;-70
2021/07/17 10:15:15;;;;;;;9.45;7.45;;;32.30;36.50;;;;;;4376886;32;20066;-70
2021/07/17 10:17:43;;;;;;;8.95;8.00;;;32.70;35.20;;;;;;4365057;32;20476;-71
2021/07/17 10:20:15;;;;;;;9.07;6.40;;;32.10;34.60;;;;;;4378054;32;20078;-71
2021/07/17 10:22:42;;;;;;;8.20;7.07;;;32.30;36.10;;;;;;4375930;32;20488;-71
2021/07/17 10:25:11;;;;;;;9.10;7.78;;;32.30;36.40;;;;;;4376023;32;20409;-71
2021/07/17 10:27:37;;;;;;;9.95;8.15;;;33.60;34.10;;;;;;4362814;32;20065;-71
2021/07/17 10:30:06;;;;;;;10.90;8.02;;;34.00;32.90;;;;;;4374246;32;20130;-70
2021/07/17 10:32:32;;;;;;;9.07;7.75;;;33.20;33.30;;;;;;4364366;32;20062;-72
2021/07/17 10:34:58;;;;;;;11.57;8.90;;;32.20;35.60;;;;;;4367939;32;20088;-70
2021/07/17 10:37:30;;;;;;;11.65;8.18;;;32.20;35.40;;;;;;4375927;32;20511;-71
2021/07/17 10:40:14;;;;;;;10.57;7.90;;;32.20;35.50;;;;;;4363058;32;20507;-71
2021/07/17 10:42:48;;;;;;;9.77;7.28;;;32.00;36.60;;;;;;4340121;32;20541;-71
2021/07/17 10:45:35;;;;;;;10.77;8.55;;;32.10;36.80;;;;;;4375548;32;20101;-71
2021/07/17 10:48:01;;;;;;;11.75;7.93;;;31.80;36.30;;;;;;4375211;32;20073;-71
2021/07/17 10:50:35;;;;;;;9.63;7.65;;;32.00;36.80;;;;;;4375292;32;20069;-71
2021/07/17 10:53:01;;;;;;;10.75;7.53;;;32.10;36.70;;;;;;4363073;32;20154;-71
2021/07/17 10:55:36;;;;;;;12.68;8.45;;;32.00;36.80;;;;;;4363015;32;20081;-72
2021/07/17 10:58:12;;;;;;;11.80;8.88;;;32.00;36.50;;;;;;4363313;32;20089;-72
2021/07/17 11:00:47;;;;;;;10.75;8.07;;;32.00;36.00;;;;;;4374815;32;20059;-71
2021/07/17 11:03:22;;;;;;;12.25;8.23;;;31.90;36.70;;;;;;4362226;32;20094;-71
2021/07/17 11:05:49;;;;;;;12.00;8.38;;;31.80;36.50;;;;;;4375086;32;20086;-71
2021/07/17 11:08:35;;;;;;;7.47;6.32;;;31.70;36.60;;;;;;4374922;32;20078;-71
2021/07/17 11:11:22;;;;;;;9.93;7.72;;;31.70;36.40;;;;;;4387337;32;20108;-71
2021/07/17 11:13:48;;;;;;;11.07;8.18;;;31.90;36.80;;;;;;4377023;32;20158;-71
2021/07/17 11:16:42;;;;;;;11.60;9.55;;;31.90;37.00;;;;;;4363113;32;20073;-71
2021/07/17 11:19:18;;;;;;;12.20;7.72;;;31.60;36.00;;;;;;4364872;32;20504;-73
2021/07/17 11:21:45;;;;;;;13.35;7.78;;;31.70;35.70;;;;;;4363567;32;20151;-71
2021/07/17 11:24:12;;;;;;;9.68;8.13;;;31.70;34.70;;;;;;4375785;32;20077;-71
2021/07/17 11:26:38;;;;;;;12.82;8.88;;;31.80;34.60;;;;;;4365462;32;20084;-71
2021/07/17 11:29:14;;;;;;;9.40;8.20;;;31.90;34.10;;;;;;4365149;32;20086;-71
2021/07/17 11:31:48;;;;;;;9.93;8.35;;;32.00;34.00;;;;;;4365228;32;20089;-71
2021/07/17 11:34:17;;;;;;;9.82;7.72;;;32.20;34.10;;;;;;4390496;32;20098;-71
2021/07/17 11:36:46;;;;;;;11.65;8.35;;;32.30;33.80;;;;;;4377886;32;20072;-70
2021/07/17 11:39:14;;;;;;;9.07;7.95;;;32.70;34.00;;;;;;4378259;32;20168;-71
2021/07/17 11:41:41;;;;;;;10.20;8.68;;;33.40;32.60;;;;;;4377537;32;20082;-70
2021/07/17 11:44:07;;;;;;;10.93;8.00;;;32.80;32.00;;;;;;4377374;32;20102;-70
2021/07/17 11:46:33;;;;;;;9.45;8.43;;;33.20;31.80;;;;;;4377680;32;20073;-71
2021/07/17 11:49:10;;;;;;;9.45;8.23;;;32.80;32.80;;;;;;4377166;32;20168;-70
2021/07/17 11:51:51;;;;;;;12.77;9.35;;;32.90;33.10;;;;;;4377822;32;20085;-71
2021/07/17 11:54:35;;;;;;;10.07;8.60;;;33.10;32.10;;;;;;4377886;32;20150;-73
2021/07/17 11:57:05;;;;;;;11.85;9.13;;;32.90;33.60;;;;;;4365561;32;20088;-72
2021/07/17 11:59:31;;;;;;;8.05;6.40;;;32.70;34.20;;;;;;4353145;32;20085;-71
2021/07/17 12:02:17;;;;;;;9.30;7.80;;;33.00;34.70;;;;;;4377731;32;20084;-71
2021/07/17 12:04:58;;;;;;;10.77;9.25;;;33.10;34.30;;;;;;4365266;32;20094;-71
2021/07/17 12:07:26;;;;;;;13.48;9.60;;;32.90;34.30;;;;;;4365719;32;20101;-71
2021/07/17 12:09:58;;;;;;;9.57;8.10;;;32.80;36.30;;;;;;4377661;32;20162;-71
2021/07/17 12:12:42;;;;;;;10.73;8.50;;;33.20;35.50;;;;;;4377837;32;20092;-71
2021/07/17 12:15:11;;;;;;;10.48;8.73;;;32.80;36.10;;;;;;4377322;32;20077;-71
2021/07/17 12:17:49;;;;;;;11.60;8.57;;;32.70;35.80;;;;;;4364247;32;20070;-71
2021/07/17 12:20:29;;;;;;;10.18;8.82;;;33.00;35.40;;;;;;4365547;32;20074;-71
2021/07/17 12:23:05;;;;;;;9.82;8.80;;;32.80;35.10;;;;;;4377247;32;20148;-71
2021/07/17 12:25:36;;;;;;;;;;;33.20;34.40;;;;;;4365827;32;20149;-71
2021/07/17 12:28:08;;;;;;;10.75;8.07;;;33.30;33.60;;;;;;4364823;32;20066;-72
2021/07/17 12:30:58;;;;;;;11.00;8.38;;;32.90;32.90;;;;;;4365044;32;20074;-71
2021/07/17 12:33:39;;;;;;;8.43;7.18;;;32.90;33.00;;;;;;4385291;32;20529;-71
2021/07/17 12:36:19;;;;;;;8.77;7.22;;;33.20;34.20;;;;;;4364789;32;20158;-72
2021/07/17 12:38:56;;;;;;;12.82;10.98;;;33.50;33.70;;;;;;4365656;32;20086;-71
2021/07/17 12:41:23;;;;;;;15.15;11.95;;;32.90;32.70;;;;;;4377641;32;20508;-71
2021/07/17 12:43:51;;;;;;;13.93;10.35;;;33.00;32.60;;;;;;4363821;32;20078;-71
2021/07/17 12:46:23;;;;;;;9.70;8.10;;;32.50;33.00;;;;;;4377220;32;20088;-72
2021/07/17 12:49:00;;;;;;;15.02;9.05;;;32.70;32.90;;;;;;4376515;32;20509;-72
2021/07/17 12:51:26;;;;;;;11.82;9.05;;;32.70;32.70;;;;;;4376569;32;20456;-70